Time;durP1;ratioP1;P1;durP2;ratioP2;P2;SDS_P1;SDS_P2;PMS_P1;PMS_P2;Temp;Humidity;BMP_temperature;BMP_pressure;BME280_temperature;BME280_humidity;BME280_pressure;Samples;Min_cycle;Max_cycle;Signal;HPM_P1;HPM_P2
2023/08/02 00:01:27;;;;;;;0.10;0.10;;;20.60;99.90;;;;;;5062752;28;20336;-77
2023/08/02 00:03:53;;;;;;;0.65;0.65;;;;;;;;;;5062971;28;20024;-76
2023/08/02 00:06:22;;;;;;;0.10;0.10;;;20.50;99.90;;;;;;5044820;28;20359;-78
2023/08/02 00:08:48;;;;;;;0.10;0.10;;;20.90;99.90;;;;;;5060731;28;20216;-82
2023/08/02 00:11:17;;;;;;;0.10;0.10;;;20.90;99.90;;;;;;5061811;28;20056;-76
2023/08/02 00:13:43;;;;;;;4.47;0.85;;;20.90;99.90;;;;;;5042665;28;20271;-77
2023/08/02 00:16:14;;;;;;;0.10;0.10;;;21.30;99.90;;;;;;5069411;28;20028;-79
2023/08/02 00:18:40;;;;;;;0.10;0.10;;;21.70;99.90;;;;;;5028838;28;20526;-76
2023/08/02 00:21:06;;;;;;;0.10;0.10;;;21.40;99.90;;;;;;5062873;28;20117;-77
2023/08/02 00:23:32;;;;;;;0.08;0.08;;;22.00;99.90;;;;;;5063021;28;20020;-77
2023/08/02 00:25:58;;;;;;;0.00;0.00;;;22.20;99.90;;;;;;5062418;28;20079;-77
2023/08/02 00:28:24;;;;;;;0.10;0.10;;;19.40;99.90;;;;;;5044933;28;20027;-76
2023/08/02 00:30:51;;;;;;;0.10;0.10;;;;;;;;;;5062928;28;20047;-77
2023/08/02 00:33:16;;;;;;;0.20;0.20;;;22.30;99.90;;;;;;5044672;28;20033;-78
2023/08/02 00:35:48;;;;;;;0.10;0.10;;;24.30;99.90;;;;;;5062801;28;20081;-77
2023/08/02 00:38:14;;;;;;;0.10;0.10;;;22.50;99.90;;;;;;5063234;28;20025;-75
2023/08/02 00:40:40;;;;;;;0.10;0.10;;;22.60;99.90;;;;;;5064698;28;20169;-77
2023/08/02 00:43:06;;;;;;;0.10;0.10;;;22.50;99.90;;;;;;5064166;28;20013;-78
2023/08/02 00:45:33;;;;;;;0.10;0.10;;;22.40;99.90;;;;;;5063324;28;20029;-79
2023/08/02 00:48:00;;;;;;;0.10;0.10;;;22.30;99.90;;;;;;5064469;28;20103;-77
2023/08/02 00:50:31;;;;;;;1.50;1.45;;;21.10;99.90;;;;;;5063484;28;20202;-77
2023/08/02 00:52:57;;;;;;;0.10;0.10;;;22.00;99.90;;;;;;5045521;28;20518;-77
2023/08/02 00:55:26;;;;;;;0.13;0.13;;;22.00;99.90;;;;;;5064243;28;20055;-77
2023/08/02 00:57:52;;;;;;;0.10;0.10;;;21.80;99.90;;;;;;5045262;28;20025;-80
2023/08/02 01:00:20;;;;;;;0.10;0.10;;;21.60;99.90;;;;;;5045794;28;20132;-76
2023/08/02 01:02:46;;;;;;;0.10;0.10;;;21.40;99.90;;;;;;5062827;28;20016;-79
2023/08/02 01:05:28;;;;;;;0.43;0.43;;;21.30;99.90;;;;;;5063464;28;20420;-78
2023/08/02 01:08:00;;;;;;;0.10;0.10;;;21.40;99.90;;;;;;5062865;28;20100;-77
2023/08/02 01:10:47;;;;;;;0.00;0.00;;;21.30;99.90;;;;;;5063309;28;20229;-78
2023/08/02 01:13:15;;;;;;;0.10;0.10;;;21.60;99.90;;;;;;5062739;28;20686;-77
2023/08/02 01:15:42;;;;;;;0.00;0.00;;;21.20;99.90;;;;;;5062849;28;20398;-77
2023/08/02 01:18:09;;;;;;;0.10;0.10;;;21.40;99.90;;;;;;5070196;28;20020;-83
2023/08/02 01:20:37;;;;;;;1.75;0.93;;;21.60;99.90;;;;;;5051339;28;20077;-82
2023/08/02 01:23:06;;;;;;;1.85;1.75;;;21.60;99.90;;;;;;5069189;28;20089;-85
2023/08/02 01:25:38;;;;;;;0.10;0.10;;;21.70;99.90;;;;;;5078763;28;20640;-84
2023/08/02 01:28:09;;;;;;;0.10;0.10;;;21.80;99.90;;;;;;5066165;28;20032;-82
2023/08/02 01:30:38;;;;;;;0.30;0.30;;;21.90;99.90;;;;;;5046243;28;20017;-80
2023/08/02 01:33:05;;;;;;;1.75;1.75;;;22.00;99.90;;;;;;5026488;28;20532;-84
2023/08/02 01:35:32;;;;;;;0.35;0.35;;;21.80;99.90;;;;;;5061334;28;20055;-78
2023/08/02 01:38:04;;;;;;;0.47;0.47;;;22.70;99.90;;;;;;5042594;28;20042;-78
2023/08/02 01:40:32;;;;;;;0.10;0.10;;;21.80;99.90;;;;;;5040475;28;20234;-77
2023/08/02 01:42:58;;;;;;;0.17;0.17;;;21.60;99.90;;;;;;5057976;28;20648;-78
2023/08/02 01:45:24;;;;;;;0.10;0.10;;;21.60;99.90;;;;;;5058767;28;20024;-85
2023/08/02 01:47:54;;;;;;;0.75;0.75;;;21.50;99.90;;;;;;5059081;28;20020;-84
2023/08/02 01:50:20;;;;;;;0.10;0.10;;;21.50;99.90;;;;;;5058323;28;20213;-79
2023/08/02 01:52:48;;;;;;;0.10;0.10;;;21.60;99.90;;;;;;5040221;28;20043;-88
2023/08/02 01:55:18;;;;;;;0.30;0.30;;;21.60;99.90;;;;;;5059312;28;20027;-89
2023/08/02 01:57:44;;;;;;;0.10;0.10;;;19.90;99.90;;;;;;5040692;28;20085;-84
2023/08/02 02:00:12;;;;;;;0.20;0.20;;;21.70;99.90;;;;;;5059175;28;20068;-85
2023/08/02 02:02:41;;;;;;;0.32;0.32;;;21.80;99.90;;;;;;5060050;28;20021;-77
2023/08/02 02:05:08;;;;;;;0.10;0.10;;;21.90;99.90;;;;;;5059896;28;20020;-78
2023/08/02 02:07:34;;;;;;;0.10;0.10;;;21.90;99.90;;;;;;5058648;28;20017;-87
2023/08/02 02:10:03;;;;;;;0.10;0.10;;;22.00;99.90;;;;;;5041828;28;20029;-83
2023/08/02 02:12:28;;;;;;;4.70;3.78;;;22.10;99.90;;;;;;5059120;28;20020;-87
2023/08/02 02:14:54;;;;;;;3.22;3.00;;;21.70;99.90;;;;;;5059590;28;20056;-78
2023/08/02 02:17:20;;;;;;;13.32;3.40;;;22.00;99.90;;;;;;5065278;28;20024;-85
2023/08/02 02:19:47;;;;;;;0.68;0.68;;;22.00;99.90;;;;;;5045992;28;20166;-78
2023/08/02 02:22:13;;;;;;;0.28;0.25;;;22.00;99.90;;;;;;5065030;28;20025;-82
2023/08/02 02:24:38;;;;;;;2.92;2.38;;;22.00;99.90;;;;;;5066587;28;20078;-84
2023/08/02 02:27:05;;;;;;;0.80;0.80;;;22.00;99.90;;;;;;5061265;28;20028;-79
2023/08/02 02:29:30;;;;;;;2.30;2.10;;;21.80;99.90;;;;;;5059259;28;20021;-87
2023/08/02 02:31:56;;;;;;;1.75;1.35;;;22.10;99.90;;;;;;5059196;28;20021;-84
2023/08/02 02:34:22;;;;;;;1.58;1.13;;;22.70;99.90;;;;;;5041436;28;20478;-80
2023/08/02 02:36:49;;;;;;;2.15;2.00;;;21.90;99.90;;;;;;5057462;28;20426;-82
2023/08/02 02:39:14;;;;;;;1.13;1.00;;;22.00;99.90;;;;;;5059138;28;20020;-82
2023/08/02 02:41:40;;;;;;;0.10;0.10;;;22.00;99.90;;;;;;5060714;28;20028;-80
2023/08/02 02:44:06;;;;;;;1.60;1.50;;;22.00;99.90;;;;;;5065427;28;20506;-91
2023/08/02 02:46:34;;;;;;;0.20;0.20;;;22.00;99.90;;;;;;5062794;28;20511;-90
2023/08/02 02:49:00;;;;;;;3.60;2.15;;;19.90;99.90;;;;;;5059560;28;20032;-86
2023/08/02 02:51:25;;;;;;;0.20;0.20;;;22.00;99.90;;;;;;5045205;28;20225;-81
2023/08/02 02:53:51;;;;;;;2.67;2.47;;;22.00;99.90;;;;;;5063904;28;20020;-78
2023/08/02 02:56:17;;;;;;;0.20;0.20;;;22.10;99.90;;;;;;5062023;28;20111;-86
2023/08/02 02:58:43;;;;;;;2.53;1.08;;;22.10;99.90;;;;;;5048914;28;20020;-83
2023/08/02 03:01:09;;;;;;;2.22;1.27;;;22.10;99.90;;;;;;5077034;28;20110;-81
2023/08/02 03:03:36;;;;;;;0.10;0.10;;;22.10;99.90;;;;;;5051519;28;20596;-77
2023/08/02 03:06:07;;;;;;;0.10;0.10;;;22.00;99.90;;;;;;5065913;28;20025;-84
2023/08/02 03:08:41;;;;;;;0.15;0.15;;;22.10;99.90;;;;;;5064947;28;20024;-78
2023/08/02 03:11:31;;;;;;;0.10;0.10;;;21.90;99.90;;;;;;5063944;28;20029;-80
2023/08/02 03:14:17;;;;;;;0.10;0.10;;;19.70;99.90;;;;;;5041373;28;20363;-79
2023/08/02 03:16:54;;;;;;;0.10;0.10;;;21.90;99.90;;;;;;4990119;28;20052;-79
2023/08/02 03:19:23;;;;;;;0.35;0.35;;;;;;;;;;5074659;28;20029;-81
2023/08/02 03:21:52;;;;;;;0.10;0.10;;;21.90;99.90;;;;;;5075102;28;20034;-79
2023/08/02 03:24:18;;;;;;;0.47;0.47;;;22.10;99.90;;;;;;5066953;28;20115;-89
2023/08/02 03:26:44;;;;;;;0.43;0.43;;;21.90;99.90;;;;;;5061217;28;20111;-91
2023/08/02 03:29:09;;;;;;;0.10;0.10;;;21.90;99.90;;;;;;5060761;28;20071;-78
2023/08/02 03:31:38;;;;;;;0.17;0.17;;;21.80;99.90;;;;;;5061042;28;20024;-81
2023/08/02 03:34:04;;;;;;;0.10;0.10;;;21.70;99.90;;;;;;5061318;28;20017;-82
2023/08/02 03:36:30;;;;;;;0.85;0.85;;;21.80;99.90;;;;;;5061026;28;20105;-80
2023/08/02 03:38:56;;;;;;;0.10;0.10;;;19.80;99.90;;;;;;5060888;28;20215;-83
2023/08/02 03:41:22;;;;;;;0.10;0.10;;;21.80;99.90;;;;;;5043404;28;20108;-89
2023/08/02 03:43:47;;;;;;;0.10;0.10;;;21.80;99.90;;;;;;5061719;28;20086;-82
2023/08/02 03:46:13;;;;;;;0.10;0.10;;;21.80;99.90;;;;;;5065626;28;20210;-80
2023/08/02 03:48:39;;;;;;;0.10;0.10;;;21.80;99.90;;;;;;5067766;28;20507;-83
2023/08/02 03:51:05;;;;;;;1.23;0.80;;;21.80;99.90;;;;;;5065057;28;20069;-76
2023/08/02 03:53:31;;;;;;;0.10;0.10;;;21.90;99.90;;;;;;5047364;28;20021;-78
2023/08/02 03:55:56;;;;;;;0.30;0.30;;;21.90;99.90;;;;;;5061379;28;20017;-88
2023/08/02 03:58:22;;;;;;;0.30;0.30;;;22.00;99.90;;;;;;5043822;28;20035;-83
2023/08/02 04:00:48;;;;;;;0.10;0.10;;;22.00;99.90;;;;;;5042636;28;20033;-83
2023/08/02 04:03:14;;;;;;;0.73;0.73;;;22.00;99.90;;;;;;5061103;28;20013;-77
2023/08/02 04:05:40;;;;;;;0.10;0.10;;;22.00;99.90;;;;;;5061122;28;20032;-76
2023/08/02 04:08:06;;;;;;;0.20;0.20;;;22.00;99.90;;;;;;5043103;28;20044;-79
2023/08/02 04:10:38;;;;;;;0.10;0.10;;;22.00;99.90;;;;;;5060086;28;20675;-81
2023/08/02 04:13:04;;;;;;;0.52;0.52;;;22.00;99.90;;;;;;5060405;28;20198;-87
2023/08/02 04:15:34;;;;;;;0.20;0.20;;;22.00;99.90;;;;;;5061336;28;20449;-79
2023/08/02 04:18:00;;;;;;;0.10;0.10;;;21.90;99.90;;;;;;5043427;28;20016;-78
2023/08/02 04:20:26;;;;;;;0.10;0.10;;;21.80;99.90;;;;;;5043323;28;20029;-87
2023/08/02 04:22:52;;;;;;;0.10;0.10;;;21.70;99.90;;;;;;5061236;28;20058;-83
2023/08/02 04:25:20;;;;;;;0.75;0.75;;;21.70;99.90;;;;;;5044620;28;20051;-76
2023/08/02 04:27:46;;;;;;;0.32;0.32;;;21.80;99.90;;;;;;5045102;28;20044;-86
2023/08/02 04:30:12;;;;;;;0.10;0.10;;;21.80;99.90;;;;;;5073619;28;20047;-79
2023/08/02 04:32:40;;;;;;;0.10;0.10;;;21.80;99.90;;;;;;5070150;28;20640;-79
2023/08/02 04:35:09;;;;;;;0.10;0.10;;;21.80;99.90;;;;;;5068497;28;20143;-86
2023/08/02 04:37:36;;;;;;;0.15;0.15;;;23.00;99.90;;;;;;5064876;28;20573;-76
2023/08/02 04:40:04;;;;;;;0.10;0.10;;;22.00;99.90;;;;;;5056054;28;20045;-82
2023/08/02 04:42:36;;;;;;;0.10;0.10;;;21.90;99.90;;;;;;5056410;28;20066;-79
2023/08/02 04:45:07;;;;;;;0.10;0.10;;;22.30;99.90;;;;;;5060892;28;20244;-79
2023/08/02 04:47:36;;;;;;;0.20;0.20;;;25.00;99.90;;;;;;5066648;28;20035;-80
2023/08/02 04:50:11;;;;;;;0.10;0.10;;;22.10;99.90;;;;;;5077717;28;20051;-80
2023/08/02 04:52:37;;;;;;;0.50;0.50;;;22.10;99.90;;;;;;5077125;28;20467;-78
2023/08/02 04:55:17;;;;;;;0.25;0.20;;;22.00;99.90;;;;;;5075763;28;20021;-80
2023/08/02 04:57:46;;;;;;;0.10;0.10;;;21.90;99.90;;;;;;5064213;28;20021;-89
2023/08/02 05:00:13;;;;;;;0.10;0.10;;;19.00;99.90;;;;;;5066961;28;20044;-77
2023/08/02 05:02:39;;;;;;;0.10;0.10;;;21.10;99.90;;;;;;5062221;28;20024;-77
2023/08/02 05:05:05;;;;;;;0.10;0.10;;;21.00;99.90;;;;;;5061655;28;20340;-77
2023/08/02 05:07:35;;;;;;;0.10;0.10;;;21.00;99.90;;;;;;5062679;28;20020;-78
2023/08/02 05:10:07;;;;;;;0.10;0.10;;;20.90;99.90;;;;;;5062041;28;20067;-79
2023/08/02 05:12:42;;;;;;;0.10;0.10;;;22.50;99.90;;;;;;5069066;28;20036;-77
2023/08/02 05:15:43;;;;;;;0.30;0.30;;;21.00;99.90;;;;;;5062525;28;20043;-81
2023/08/02 05:18:26;;;;;;;0.15;0.15;;;21.20;99.90;;;;;;5066605;28;20133;-79
2023/08/02 05:20:58;;;;;;;0.10;0.10;;;21.90;99.90;;;;;;5047576;28;20028;-78
2023/08/02 05:23:25;;;;;;;0.10;0.10;;;21.30;99.90;;;;;;5064324;28;20066;-78
2023/08/02 05:25:51;;;;;;;0.10;0.10;;;21.40;99.90;;;;;;5063888;28;20083;-78
2023/08/02 05:28:22;;;;;;;0.10;0.10;;;21.10;99.90;;;;;;5063474;28;20032;-77
2023/08/02 05:30:53;;;;;;;0.25;0.25;;;21.60;99.90;;;;;;5041555;28;20036;-78
2023/08/02 05:33:20;;;;;;;0.10;0.10;;;21.60;99.90;;;;;;5071934;28;20047;-81
2023/08/02 05:35:46;;;;;;;0.10;0.10;;;21.40;99.90;;;;;;5069646;28;20028;-84
2023/08/02 05:38:13;;;;;;;0.10;0.10;;;21.60;99.90;;;;;;5072312;28;20048;-81
2023/08/02 05:40:43;;;;;;;0.10;0.10;;;21.50;99.90;;;;;;5069272;28;20055;-77
2023/08/02 05:43:14;;;;;;;0.10;0.10;;;19.90;99.90;;;;;;5077506;28;20043;-76
2023/08/02 05:45:39;;;;;;;0.10;0.10;;;21.60;99.90;;;;;;5075768;28;20028;-78
2023/08/02 05:48:05;;;;;;;1.88;1.38;;;21.70;99.90;;;;;;5067883;28;20021;-77
2023/08/02 05:50:32;;;;;;;0.10;0.10;;;21.80;99.90;;;;;;5065083;28;20017;-76
2023/08/02 05:53:00;;;;;;;0.10;0.10;;;22.40;99.90;;;;;;5062369;28;20025;-76
2023/08/02 05:55:31;;;;;;;0.10;0.10;;;22.20;99.90;;;;;;5056445;28;20036;-76
2023/08/02 05:58:00;;;;;;;0.10;0.10;;;22.10;99.90;;;;;;5078482;28;20479;-88
2023/08/02 06:00:27;;;;;;;0.15;0.15;;;22.20;99.90;;;;;;5040274;28;20036;-79
2023/08/02 06:02:53;;;;;;;0.10;0.10;;;22.40;99.90;;;;;;5060408;28;20213;-82
2023/08/02 06:05:19;;;;;;;0.10;0.10;;;22.50;99.90;;;;;;5057618;28;20043;-76
2023/08/02 06:07:45;;;;;;;0.10;0.10;;;22.60;99.90;;;;;;5040185;28;20020;-79
2023/08/02 06:10:11;;;;;;;0.10;0.10;;;22.70;99.90;;;;;;5057737;28;20060;-82
2023/08/02 06:12:37;;;;;;;0.10;0.10;;;22.80;99.90;;;;;;5058250;28;20679;-90
2023/08/02 06:15:03;;;;;;;2.13;0.70;;;22.90;99.90;;;;;;5058954;28;20102;-80
2023/08/02 06:17:30;;;;;;;0.10;0.10;;;25.40;99.90;;;;;;5058082;28;20025;-81
2023/08/02 06:19:59;;;;;;;0.10;0.10;;;23.00;99.90;;;;;;5057793;28;20667;-81
2023/08/02 06:22:25;;;;;;;0.10;0.10;;;23.80;99.90;;;;;;5057461;28;20029;-78
2023/08/02 06:24:51;;;;;;;0.13;0.13;;;22.90;99.90;;;;;;5057830;28;20575;-82
2023/08/02 06:27:19;;;;;;;0.10;0.10;;;23.00;99.90;;;;;;5061138;28;20480;-79
2023/08/02 06:29:45;;;;;;;0.30;0.30;;;;;;;;;;5062193;28;20025;-77
2023/08/02 06:32:11;;;;;;;0.10;0.10;;;23.20;99.90;;;;;;5047204;28;20021;-78
2023/08/02 06:34:37;;;;;;;4.55;1.20;;;23.40;99.90;;;;;;5044046;28;20017;-79
2023/08/02 06:37:03;;;;;;;1.85;1.30;;;23.40;99.90;;;;;;5062788;28;20089;-86
2023/08/02 06:39:29;;;;;;;0.10;0.10;;;24.60;99.90;;;;;;5060972;28;20246;-78
2023/08/02 06:41:55;;;;;;;1.38;1.27;;;23.30;99.90;;;;;;5043505;28;20032;-81
2023/08/02 06:44:20;;;;;;;0.30;0.30;;;23.10;99.90;;;;;;5061994;28;20025;-78
2023/08/02 06:46:46;;;;;;;0.10;0.10;;;23.20;99.90;;;;;;5060900;28;20367;-77
2023/08/02 06:49:12;;;;;;;0.68;0.68;;;23.30;99.90;;;;;;5061101;28;20031;-77
2023/08/02 06:51:38;;;;;;;0.57;0.55;;;23.40;99.90;;;;;;5043506;28;20102;-79
2023/08/02 06:54:04;;;;;;;2.05;1.10;;;23.50;99.90;;;;;;5061351;28;20036;-90
2023/08/02 06:56:29;;;;;;;0.20;0.20;;;23.60;99.90;;;;;;5060995;28;20446;-76
2023/08/02 06:58:55;;;;;;;0.10;0.10;;;23.40;99.90;;;;;;5043948;28;20473;-78
2023/08/02 07:01:24;;;;;;;0.10;0.10;;;23.50;99.90;;;;;;5062457;28;20036;-78
2023/08/02 07:03:50;;;;;;;0.00;0.00;;;23.60;99.90;;;;;;5044572;28;20056;-77
2023/08/02 07:06:20;;;;;;;0.25;0.25;;;23.70;99.90;;;;;;5062436;28;20080;-77
2023/08/02 07:08:46;;;;;;;0.10;0.10;;;26.20;99.90;;;;;;5060881;28;20028;-77
2023/08/02 07:11:12;;;;;;;1.85;1.75;;;24.00;99.90;;;;;;5060474;28;20044;-81
2023/08/02 07:13:43;;;;;;;0.08;0.08;;;23.80;99.90;;;;;;5060380;28;20048;-85
2023/08/02 07:16:09;;;;;;;0.10;0.10;;;23.80;99.90;;;;;;5060777;28;20066;-77
2023/08/02 07:18:38;;;;;;;0.30;0.30;;;23.90;99.90;;;;;;5042297;28;20024;-86
2023/08/02 07:21:10;;;;;;;0.10;0.10;;;24.10;99.90;;;;;;5060424;28;20043;-81
2023/08/02 07:23:36;;;;;;;0.20;0.20;;;24.10;99.90;;;;;;5042753;28;20479;-82
2023/08/02 07:26:04;;;;;;;0.10;0.10;;;24.10;99.90;;;;;;5042153;28;20289;-80
2023/08/02 07:28:30;;;;;;;0.30;0.30;;;;;;;;;;5060778;28;20648;-84
2023/08/02 07:31:10;;;;;;;0.17;0.17;;;25.60;99.90;;;;;;5060189;28;20525;-83
2023/08/02 07:33:37;;;;;;;0.20;0.20;;;23.70;99.90;;;;;;5060124;28;20020;-78
2023/08/02 07:36:04;;;;;;;0.10;0.10;;;23.70;99.90;;;;;;5059276;28;20108;-81
2023/08/02 07:38:30;;;;;;;0.20;0.20;;;25.60;99.90;;;;;;5041950;28;20538;-84
2023/08/02 07:40:56;;;;;;;0.10;0.10;;;23.50;99.90;;;;;;5060656;28;20036;-79
2023/08/02 07:43:22;;;;;;;0.10;0.10;;;23.40;99.90;;;;;;5062952;28;20430;-81
2023/08/02 07:45:48;;;;;;;0.32;0.32;;;23.40;99.90;;;;;;5062503;28;20020;-79
2023/08/02 07:48:14;;;;;;;0.10;0.10;;;23.10;99.90;;;;;;5060224;28;20020;-83
2023/08/02 07:50:40;;;;;;;1.27;1.17;;;26.10;99.90;;;;;;5060002;28;20260;-86
2023/08/02 07:53:06;;;;;;;0.10;0.10;;;23.20;99.90;;;;;;5059856;28;20042;-79
2023/08/02 07:55:32;;;;;;;0.20;0.20;;;23.20;99.90;;;;;;5060058;28;20028;-84
2023/08/02 07:57:58;;;;;;;0.10;0.10;;;20.10;99.90;;;;;;5059946;28;20058;-83
2023/08/02 08:00:26;;;;;;;0.10;0.10;;;23.50;99.90;;;;;;5042146;28;20143;-78
2023/08/02 08:02:52;;;;;;;0.10;0.10;;;24.30;99.90;;;;;;5041730;28;20040;-78
2023/08/02 08:05:18;;;;;;;2.85;2.75;;;23.80;99.90;;;;;;5041731;28;20321;-77
2023/08/02 08:07:43;;;;;;;0.15;0.15;;;23.60;99.90;;;;;;5042434;28;20503;-77
2023/08/02 08:10:09;;;;;;;0.10;0.10;;;24.30;99.90;;;;;;5043949;28;20035;-79
2023/08/02 08:12:40;;;;;;;0.10;0.10;;;24.40;99.90;;;;;;5047109;28;20287;-80
2023/08/02 08:15:13;;;;;;;0.10;0.10;;;24.60;99.90;;;;;;5060777;28;20059;-77
2023/08/02 08:17:39;;;;;;;0.10;0.10;;;24.70;99.90;;;;;;5041372;28;20116;-81
2023/08/02 08:20:05;;;;;;;0.10;0.10;;;24.80;99.90;;;;;;5064138;28;20116;-77
2023/08/02 08:22:31;;;;;;;0.10;0.10;;;24.90;99.90;;;;;;5061417;28;20021;-77
2023/08/02 08:25:00;;;;;;;0.00;0.00;;;25.40;99.90;;;;;;5040105;28;20317;-77
2023/08/02 08:27:26;;;;;;;0.08;0.08;;;28.10;99.90;;;;;;5040567;28;20048;-78
2023/08/02 08:29:52;;;;;;;0.38;0.32;;;25.10;99.90;;;;;;5059423;28;20024;-77
2023/08/02 08:32:26;;;;;;;0.25;0.25;;;25.00;99.90;;;;;;5057825;28;20020;-77
2023/08/02 08:34:55;;;;;;;0.05;0.05;;;25.10;99.90;;;;;;5039698;28;20330;-77
2023/08/02 08:37:21;;;;;;;0.10;0.10;;;25.20;99.90;;;;;;5058154;28;20021;-77
2023/08/02 08:39:47;;;;;;;0.10;0.10;;;24.50;99.90;;;;;;5040251;28;20660;-81
2023/08/02 08:42:13;;;;;;;0.08;0.08;;;24.40;99.90;;;;;;5057980;28;20020;-77
2023/08/02 08:44:46;;;;;;;0.10;0.10;;;24.40;99.90;;;;;;5058086;28;20020;-77
2023/08/02 08:47:14;;;;;;;1.27;0.57;;;24.60;99.90;;;;;;5039426;28;20055;-76
2023/08/02 08:49:40;;;;;;;0.10;0.10;;;24.90;99.90;;;;;;5039264;28;20028;-77
2023/08/02 08:52:13;;;;;;;0.10;0.10;;;25.70;99.90;;;;;;5057956;28;20510;-77
2023/08/02 08:54:42;;;;;;;0.17;0.17;;;24.30;99.90;;;;;;5057808;28;20576;-76
2023/08/02 08:57:09;;;;;;;0.00;0.00;;;29.00;99.90;;;;;;5039518;28;20025;-77
2023/08/02 08:59:39;;;;;;;4.38;1.77;;;23.50;99.90;;;;;;5039472;28;20030;-77
2023/08/02 09:02:05;;;;;;;0.10;0.10;;;25.50;99.90;;;;;;5039090;28;20058;-77
2023/08/02 09:04:33;;;;;;;0.10;0.10;;;25.50;99.90;;;;;;5039184;28;20402;-77
2023/08/02 09:06:59;;;;;;;0.10;0.10;;;22.70;99.90;;;;;;5057789;28;20098;-79
2023/08/02 09:09:25;;;;;;;0.10;0.10;;;25.60;99.90;;;;;;5057824;28;20064;-77
2023/08/02 09:11:54;;;;;;;0.00;0.00;;;25.80;99.90;;;;;;5057612;28;20025;-78
2023/08/02 09:14:20;;;;;;;0.00;0.00;;;25.70;99.90;;;;;;5039200;28;20052;-77
2023/08/02 09:17:00;;;;;;;0.10;0.10;;;25.90;99.90;;;;;;5040055;28;20020;-76
2023/08/02 09:19:34;;;;;;;0.20;0.20;;;25.80;99.90;;;;;;5058273;28;20513;-79
2023/08/02 09:22:14;;;;;;;0.10;0.10;;;25.90;99.90;;;;;;5040542;28;20074;-78
2023/08/02 09:24:46;;;;;;;0.15;0.15;;;26.20;99.90;;;;;;5039084;28;20100;-78
2023/08/02 09:27:17;;;;;;;0.10;0.10;;;24.70;99.90;;;;;;5039376;28;20028;-80
2023/08/02 09:30:00;;;;;;;0.10;0.10;;;26.40;99.90;;;;;;5038165;28;20122;-80
2023/08/02 09:32:26;;;;;;;0.00;0.00;;;26.40;99.90;;;;;;5040334;28;20031;-82
2023/08/02 09:34:56;;;;;;;0.68;0.68;;;;;;;;;;5039986;28;20435;-79
2023/08/02 09:37:29;;;;;;;0.30;0.30;;;26.40;99.90;;;;;;5057654;28;20541;-80
2023/08/02 09:39:55;;;;;;;2.80;2.58;;;26.50;99.90;;;;;;5059024;28;20333;-81
2023/08/02 09:42:28;;;;;;;0.20;0.20;;;26.60;99.90;;;;;;5064508;28;20024;-77
2023/08/02 09:45:03;;;;;;;0.00;0.00;;;26.70;99.90;;;;;;5062219;28;20078;-79
2023/08/02 09:47:29;;;;;;;0.00;0.00;;;26.90;99.90;;;;;;5060904;28;20042;-78
2023/08/02 09:50:09;;;;;;;0.00;0.00;;;26.70;99.90;;;;;;5061021;28;20025;-77
2023/08/02 09:52:36;;;;;;;0.90;0.90;;;26.40;99.90;;;;;;5044017;28;20306;-79
2023/08/02 09:55:04;;;;;;;0.00;0.00;;;25.50;99.50;;;;;;5060360;28;20032;-77
2023/08/02 09:57:31;;;;;;;0.00;0.00;;;27.00;99.90;;;;;;5060470;28;20137;-77
2023/08/02 10:00:10;;;;;;;0.98;0.98;;;26.80;99.80;;;;;;5043737;28;20637;-83
2023/08/02 10:02:39;;;;;;;0.00;0.00;;;27.00;99.50;;;;;;5069574;28;20040;-82
2023/08/02 10:05:17;;;;;;;0.00;0.00;;;26.80;99.90;;;;;;5063337;28;20028;-80
2023/08/02 10:07:49;;;;;;;0.10;0.10;;;26.90;99.90;;;;;;5057940;28;20056;-82
2023/08/02 10:10:21;;;;;;;0.00;0.00;;;27.10;99.70;;;;;;5058393;28;20395;-80
2023/08/02 10:12:52;;;;;;;0.10;0.10;;;27.10;99.90;;;;;;5058729;28;20115;-83
2023/08/02 10:15:22;;;;;;;0.15;0.13;;;27.50;99.80;;;;;;5060871;28;20107;-92
2023/08/02 10:17:48;;;;;;;0.10;0.10;;;28.00;99.60;;;;;;5041133;28;20379;-79
2023/08/02 10:20:15;;;;;;;0.00;0.00;;;28.00;99.10;;;;;;5059700;28;20021;-79
2023/08/02 10:22:44;;;;;;;0.10;0.10;;;28.10;99.30;;;;;;5060006;28;20012;-83
2023/08/02 10:25:10;;;;;;;0.15;0.13;;;28.00;98.60;;;;;;5040067;28;20028;-80
2023/08/02 10:27:37;;;;;;;0.65;0.40;;;27.60;98.50;;;;;;5058009;28;20024;-78
2023/08/02 10:30:04;;;;;;;0.00;0.00;;;28.20;98.40;;;;;;5040255;28;20526;-80
2023/08/02 10:32:30;;;;;;;0.25;0.25;;;28.30;98.80;;;;;;5039245;28;20522;-84
2023/08/02 10:34:56;;;;;;;0.10;0.10;;;;;;;;;;5057270;28;20020;-79
2023/08/02 10:37:22;;;;;;;0.10;0.10;;;28.50;97.60;;;;;;5056772;28;20021;-89
2023/08/02 10:39:48;;;;;;;0.03;0.03;;;28.70;98.60;;;;;;5057320;28;20024;-82
2023/08/02 10:42:22;;;;;;;0.40;0.40;;;28.70;98.30;;;;;;5058804;28;20021;-79
2023/08/02 10:44:57;;;;;;;0.10;0.10;;;28.70;97.80;;;;;;5040379;28;20017;-83
2023/08/02 10:47:26;;;;;;;0.10;0.10;;;28.40;98.40;;;;;;5057001;28;20475;-79
2023/08/02 10:49:55;;;;;;;0.10;0.10;;;28.80;97.80;;;;;;5057173;28;20058;-79
2023/08/02 10:52:30;;;;;;;0.35;0.32;;;29.00;98.20;;;;;;5057069;28;20154;-83
2023/08/02 10:55:09;;;;;;;0.32;0.32;;;29.10;97.60;;;;;;5039777;28;20552;-79
2023/08/02 10:57:36;;;;;;;1.13;1.02;;;29.20;97.20;;;;;;5038210;28;20120;-77
2023/08/02 11:00:30;;;;;;;0.10;0.10;;;29.20;97.40;;;;;;5038632;28;20036;-77
2023/08/02 11:02:56;;;;;;;0.10;0.10;;;29.30;97.30;;;;;;5056396;28;20532;-78
2023/08/02 11:05:47;;;;;;;0.00;0.00;;;29.70;97.40;;;;;;5039868;28;20029;-78
2023/08/02 11:08:13;;;;;;;0.30;0.30;;;30.00;97.40;;;;;;5057428;28;20016;-83
2023/08/02 11:10:51;;;;;;;0.65;0.60;;;30.10;96.50;;;;;;5057033;28;20111;-80
2023/08/02 11:13:18;;;;;;;0.70;0.65;;;29.80;96.30;;;;;;5060771;28;20036;-77
2023/08/02 11:15:44;;;;;;;0.57;0.57;;;30.00;96.80;;;;;;5062721;28;20031;-79
2023/08/02 11:18:10;;;;;;;1.58;1.48;;;30.30;96.40;;;;;;5062587;28;20009;-79
2023/08/02 11:20:37;;;;;;;0.47;0.30;;;29.60;95.20;;;;;;5061640;28;20289;-80
2023/08/02 11:23:30;;;;;;;0.13;0.13;;;30.90;95.60;;;;;;5070391;28;20029;-79
2023/08/02 11:26:30;;;;;;;0.10;0.10;;;28.30;94.30;;;;;;5070775;28;20025;-87
2023/08/02 11:28:56;;;;;;;0.10;0.10;;;30.50;94.70;;;;;;5062686;28;20436;-78
2023/08/02 11:31:32;;;;;;;0.30;0.30;;;30.60;94.40;;;;;;5067484;28;20046;-80
2023/08/02 11:33:58;;;;;;;0.32;0.20;;;31.10;94.60;;;;;;5070591;28;20039;-80
2023/08/02 11:36:24;;;;;;;0.52;0.52;;;31.40;93.90;;;;;;5051890;28;20107;-87
2023/08/02 11:38:50;;;;;;;0.20;0.20;;;31.30;93.40;;;;;;5067318;28;20043;-94
2023/08/02 11:41:21;;;;;;;0.45;0.22;;;30.90;93.80;;;;;;5046776;28;20262;-80
2023/08/02 11:43:57;;;;;;;0.30;0.30;;;31.10;93.20;;;;;;5030414;28;20044;-78
2023/08/02 11:46:26;;;;;;;0.77;0.50;;;31.10;94.30;;;;;;5062563;28;20039;-80
2023/08/02 11:48:54;;;;;;;0.13;0.13;;;31.30;93.30;;;;;;5043679;28;20081;-79
2023/08/02 11:51:21;;;;;;;0.20;0.20;;;31.70;93.50;;;;;;5061657;28;20317;-79
2023/08/02 11:53:49;;;;;;;0.28;0.28;;;31.70;93.00;;;;;;5043392;28;20649;-79
2023/08/02 11:56:19;;;;;;;4.75;0.85;;;32.00;92.90;;;;;;5059802;28;20055;-79
2023/08/02 11:59:04;;;;;;;0.50;0.50;;;32.60;92.30;;;;;;5068047;28;20107;-79
2023/08/02 12:01:31;;;;;;;0.20;0.20;;;32.80;91.70;;;;;;5043201;28;20711;-81
2023/08/02 12:04:05;;;;;;;0.30;0.30;;;32.80;91.70;;;;;;5063017;28;20024;-80
2023/08/02 12:06:51;;;;;;;1.88;0.80;;;30.40;88.60;;;;;;5066483;28;20332;-79
2023/08/02 12:09:38;;;;;;;0.43;0.43;;;33.20;90.20;;;;;;5049868;28;20028;-82
2023/08/02 12:12:08;;;;;;;1.35;1.08;;;33.40;90.40;;;;;;5036673;28;20528;-78
2023/08/02 12:14:40;;;;;;;0.17;0.17;;;32.60;90.10;;;;;;5066607;28;20122;-78
2023/08/02 12:17:25;;;;;;;0.33;0.27;;;32.80;90.40;;;;;;5034582;28;20070;-79
2023/08/02 12:19:52;;;;;;;0.40;0.40;;;34.00;90.20;;;;;;5064069;28;20607;-80
2023/08/02 12:22:19;;;;;;;0.88;0.30;;;32.90;90.00;;;;;;5063304;28;20100;-80
2023/08/02 12:25:03;;;;;;;0.65;0.40;;;33.40;88.90;;;;;;5061330;28;20024;-82
2023/08/02 12:27:31;;;;;;;0.10;0.10;;;33.60;88.40;;;;;;5046341;28;20732;-79
2023/08/02 12:30:16;;;;;;;0.45;0.35;;;31.70;85.50;;;;;;5043416;28;20020;-79
2023/08/02 12:32:45;;;;;;;0.20;0.20;;;33.80;86.90;;;;;;5060595;28;20301;-80
2023/08/02 12:35:13;;;;;;;1.45;0.75;;;33.70;88.50;;;;;;5061517;28;20659;-85
2023/08/02 12:37:41;;;;;;;0.43;0.43;;;34.30;86.50;;;;;;5061281;28;20489;-86
2023/08/02 12:40:08;;;;;;;0.57;0.57;;;33.50;87.60;;;;;;5063386;28;20021;-80
2023/08/02 12:42:44;;;;;;;0.17;0.17;;;35.00;84.40;;;;;;5043347;28;20032;-80
2023/08/02 12:45:10;;;;;;;0.68;0.57;;;35.20;83.30;;;;;;5037522;28;20029;-86
2023/08/02 12:47:36;;;;;;;0.55;0.38;;;35.50;83.50;;;;;;5037253;28;20589;-83
2023/08/02 12:50:02;;;;;;;1.13;0.70;;;35.60;83.40;;;;;;5039462;28;20025;-77
2023/08/02 12:52:28;;;;;;;1.15;1.08;;;35.80;83.00;;;;;;5038138;28;20111;-88
2023/08/02 12:54:55;;;;;;;0.50;0.45;;;34.80;83.30;;;;;;5037915;28;20459;-85
2023/08/02 12:57:26;;;;;;;0.38;0.38;;;34.10;84.40;;;;;;5039183;28;20132;-88